Terminal Aerodrome Forecast
Issued by NWS Dodge City, KS

Home | Current Version | Previous Version | Text Only | Print | Product List | Glossary Off
Versions: 1 2 3 4 5 6 7 8 9 10 11 12 13 14 15 16 17 18 19 20 21 22 23 24 25 26 27 28 29 30 31 32 33 34 35

000
FTUS43 KDDC 241133
TAFDDC
TAF
KDDC 241133Z 2412/2512 02010KT P6SM SCT015
     FM241600 32022G32KT P6SM SKC
     FM242100 30015G22KT P6SM BKN250
     FM250100 18006KT P6SM BKN250=

USA.gov is the U.S. government's official web portal to all federal, state and local government web resources and services.